Terminal Aerodrome Forecast
Issued by NWS Charleston, WV

Current Version | Previous Version | Text Only | Print | Product List | Glossary Off
Versions: 1 2 3 4 5 6 7 8 9 10 11 12 13 14 15 16 17 18 19 20 21 22

000
FTUS41 KRLX 291137
TAFBKW
TAF
KBKW 291137Z 2912/3012 00000KT P6SM FEW140
     FM291700 22006KT P6SM BKN080
     FM300500 00000KT P6SM BKN035
     FM300800 00000KT 6SM SHRA BR BKN035
     FM301000 VRB03KT P6SM BKN025=

USA.gov is the U.S. government's official web portal to all federal, state and local government web resources and services.